Air Navigation Services of Czech Republic  
Last data update:  25.10.2021 22:12:29 UTC česká verze
   METEO Page displayed:  25.10.2021 22:13:42 UTC  
vysvětlivky
METAR EDDB 252150Z 19004KT CAVOK 04/03 Q1018 NOSIG=
METAR EDDC 252150Z 17007KT CAVOK 07/03 Q1020=
METAR EDDE 252150Z 20007KT 9999 FEW046 08/05 Q1019=
METAR EDDF 252150Z VRB01KT 9999 FEW034TCU BKN042 07/06 Q1020 NOSIG=
METAR EDDM 252150Z VRB01KT 6000 R08L/0500D BCFG NSC 01/00 Q1022 BECMG 3000=
METAR EDDN 252150Z 11006KT CAVOK 05/05 Q1021=
METAR EDDP 252150Z 19010KT CAVOK 07/04 Q1019 NOSIG=
METAR EDQM NIL
METAR EPBY 252200Z VRB02KT CAVOK 03/01 Q1019=
METAR EPGD 252200Z 16004KT CAVOK 05/02 Q1017=
METAR EPKK 252200Z 08003KT 8000 NSC 00/M01 Q1023=
METAR EPKT 252200Z VRB02KT 7000 NSC 03/M02 Q1022=
METAR EPLL 252200Z 20003KT 140V230 CAVOK 05/M01 Q1021=
METAR EPPO 252200Z 20003KT CAVOK 04/02 Q1019=
METAR EPRZ 252200Z 03002KT CAVOK 05/M01 Q1024=
METAR EPWA 252200Z 17007KT CAVOK 04/01 Q1022 NOSIG=
METAR EPWR 252200Z 17003KT 100V200 CAVOK 04/M01 Q1021=
METAR LHBP 252200Z 10005KT 060V130 CAVOK 07/M00 Q1026 NOSIG=
METAR LHSM 252145Z AUTO 31003KT 6000 NCD 02/01 Q1025=
METAR LKBC 252200Z AUTO 28001KT 9999 BKN210 01/M01 Q1021=
METAR LKCV 252200Z 14003KT CAVOK 03/M01 Q1022 RMK BLACK=
METAR LKKB 252200Z 14005KT CAVOK 03/01 Q1021 RMK BLU=
METAR LKKU NIL
METAR LKKV 252200Z 00000KT CAVOK 02/01 Q1021 RMK REG QNH 1018=
METAR LKLN 252200Z AUTO 02002KT 6000 FEW140 BKN170 BKN210 01/00 Q1022=
METAR LKMT 252200Z 24009KT CAVOK 02/M01 Q1023 NOSIG RMK REG QNH 1018=
METAR LKNA 252200Z 11009KT CAVOK 05/01 Q1022 RMK BLU=
METAR COR LKPD 252200Z 06003KT CAVOK 05/00 Q1022 RMK BLU=
METAR LKPJ 252200Z AUTO VRB01KT CAVOK 00/M02 Q1024=
METAR LKPR 252200Z 16005KT CAVOK 04/01 Q1021 NOSIG RMK REG QNH 1018=
METAR LKTB 252200Z 08006KT CAVOK 06/M00 Q1023 NOSIG RMK REG QNH 1018=
METAR LKVO NIL
METAR LOWI 252150Z AUTO 26002KT 9999 NSC 03/02 Q1023=
METAR LOWL 252150Z AUTO 26003KT 9000 NSC 03/02 Q1022=
METAR LOWS 252150Z AUTO VRB01KT 9999 NSC 04/03 Q1022=
METAR LOWW 252150Z 13010KT CAVOK 07/02 Q1022 NOSIG=
METAR LZIB 252200Z 05007KT CAVOK 05/02 Q1024=
METAR LZKZ 252200Z 36001KT CAVOK M00/M02 Q1027=
METAR LZMC NIL
METAR LZPP 252200Z AUTO 12009KT 9999 NCD 09/00 Q1024=
METAR LZSL NIL
METAR LZTT 252200Z 19007KT 160V220 CAVOK 04/M05 Q1024=
METAR LZZI 252200Z VRB01KT CAVOK M00/M01 Q1025=